createdAt,value
2022-08-26T00:01:54.562Z,10.07
2022-08-26T00:04:23.727Z,9.60
2022-08-26T00:06:51.626Z,11.20
2022-08-26T00:09:19.166Z,10.70
2022-08-26T00:11:46.675Z,11.18
2022-08-26T00:14:16.226Z,10.25
2022-08-26T00:16:48.005Z,8.80
2022-08-26T00:19:19.329Z,10.65
2022-08-26T00:21:48.538Z,9.85
2022-08-26T00:24:16.852Z,9.30
2022-08-26T00:26:44.600Z,10.75
2022-08-26T00:29:12.555Z,8.30
2022-08-26T00:31:40.979Z,11.02
2022-08-26T00:34:09.393Z,9.93
2022-08-26T00:36:37.580Z,11.00
2022-08-26T00:39:09.736Z,9.57
2022-08-26T00:41:40.023Z,9.60
2022-08-26T00:44:08.537Z,10.00
2022-08-26T00:46:46.391Z,12.65
2022-08-26T00:49:23.228Z,11.40
2022-08-26T00:51:53.995Z,12.60
2022-08-26T00:54:27.236Z,10.30
2022-08-26T00:57:02.067Z,11.80
2022-08-26T00:59:32.744Z,12.65
2022-08-26T01:02:02.588Z,10.35
2022-08-26T01:04:34.071Z,10.70
2022-08-26T01:07:02.050Z,10.25
2022-08-26T01:09:30.439Z,9.85
2022-08-26T01:12:00.683Z,11.45
2022-08-26T01:14:33.951Z,10.60
2022-08-26T01:17:03.395Z,13.13
2022-08-26T01:19:41.008Z,14.38
2022-08-26T01:22:11.302Z,11.15
2022-08-26T01:24:41.330Z,10.95
2022-08-26T01:27:11.549Z,11.27
2022-08-26T01:29:42.640Z,13.55
2022-08-26T01:32:14.739Z,12.07
2022-08-26T01:34:42.313Z,11.15
2022-08-26T01:37:18.266Z,12.45
2022-08-26T01:39:49.895Z,13.25
2022-08-26T01:42:19.622Z,12.60
2022-08-26T01:44:52.414Z,10.82
2022-08-26T01:47:21.604Z,11.35
2022-08-26T01:49:51.591Z,10.18
2022-08-26T01:52:27.472Z,11.50
2022-08-26T01:54:57.370Z,11.55
2022-08-26T01:57:25.904Z,13.27
2022-08-26T01:59:57.587Z,11.75
2022-08-26T02:02:25.849Z,12.25
2022-08-26T02:05:00.051Z,11.18
2022-08-26T02:07:28.952Z,11.50
2022-08-26T02:09:56.881Z,11.35
2022-08-26T02:12:25.903Z,9.73
2022-08-26T02:14:56.754Z,9.55
2022-08-26T02:17:29.544Z,9.43
2022-08-26T02:19:58.335Z,11.07
2022-08-26T02:22:25.554Z,10.90
2022-08-26T02:25:06.885Z,10.00
2022-08-26T02:27:36.138Z,10.05
2022-08-26T02:30:18.775Z,10.27
2022-08-26T02:32:47.012Z,9.10
2022-08-26T02:35:20.163Z,8.85
2022-08-26T02:37:49.382Z,10.25
2022-08-26T02:40:21.541Z,9.38
2022-08-26T02:42:49.863Z,8.70
2022-08-26T02:45:23.386Z,9.60
2022-08-26T02:47:52.492Z,8.63
2022-08-26T02:50:20.134Z,8.52
2022-08-26T02:52:48.469Z,9.98
2022-08-26T02:55:16.567Z,8.65
2022-08-26T02:57:44.073Z,7.35
2022-08-26T03:00:14.554Z,8.20
2022-08-26T03:02:42.075Z,9.30
2022-08-26T03:05:11.320Z,9.73
2022-08-26T03:07:38.844Z,9.18
2022-08-26T03:10:08.840Z,8.68
2022-08-26T03:12:36.642Z,7.80
2022-08-26T03:15:15.876Z,9.48
2022-08-26T03:17:49.175Z,9.85
2022-08-26T03:20:18.360Z,9.48
2022-08-26T03:22:46.053Z,10.85
2022-08-26T03:25:15.779Z,10.07
2022-08-26T03:27:43.309Z,9.48
2022-08-26T03:30:31.501Z,9.25
2022-08-26T03:32:59.098Z,9.73
2022-08-26T03:35:26.620Z,10.77
2022-08-26T03:37:54.204Z,9.40
2022-08-26T03:40:22.379Z,10.18
2022-08-26T03:42:50.407Z,9.88
2022-08-26T03:45:19.150Z,8.48
2022-08-26T03:47:48.044Z,10.90
2022-08-26T03:50:22.833Z,10.35
2022-08-26T03:52:53.847Z,12.15
2022-08-26T03:55:24.907Z,10.32
2022-08-26T03:57:52.742Z,10.68
2022-08-26T04:00:20.644Z,11.55
2022-08-26T04:02:51.220Z,10.93
2022-08-26T04:05:22.736Z,10.63
2022-08-26T04:07:50.852Z,11.57
2022-08-26T04:10:22.180Z,12.10
2022-08-26T04:12:58.840Z,11.60
2022-08-26T04:15:27.178Z,12.93
2022-08-26T04:17:55.839Z,12.25
2022-08-26T04:20:24.992Z,10.80
2022-08-26T04:22:52.619Z,12.57
2022-08-26T04:25:20.543Z,12.13
2022-08-26T04:27:48.512Z,11.95
2022-08-26T04:30:16.658Z,12.32
2022-08-26T04:32:44.953Z,11.40
2022-08-26T04:35:12.390Z,11.43
2022-08-26T04:37:43.105Z,11.32
2022-08-26T04:40:11.334Z,10.70
2022-08-26T04:42:38.702Z,9.48
2022-08-26T04:45:10.407Z,10.82
2022-08-26T04:47:38.783Z,10.25
2022-08-26T04:50:07.707Z,9.90
2022-08-26T04:52:36.261Z,10.70
2022-08-26T04:55:06.665Z,9.35
2022-08-26T04:57:36.403Z,10.90
2022-08-26T05:00:10.304Z,9.70
2022-08-26T05:02:38.875Z,9.73
2022-08-26T05:05:07.227Z,9.30
2022-08-26T05:07:35.359Z,9.73
2022-08-26T05:10:04.264Z,9.27
2022-08-26T05:12:36.022Z,9.82
2022-08-26T05:15:06.182Z,9.55
2022-08-26T05:17:33.445Z,8.35
2022-08-26T05:20:00.705Z,8.95
2022-08-26T05:22:28.177Z,8.40
2022-08-26T05:24:55.458Z,8.77
2022-08-26T05:27:22.548Z,8.15
2022-08-26T05:29:54.454Z,10.18
2022-08-26T05:32:21.856Z,7.80
2022-08-26T05:34:52.708Z,7.75
2022-08-26T05:37:22.029Z,7.57
2022-08-26T05:39:51.415Z,7.82
2022-08-26T05:42:19.925Z,6.95
2022-08-26T05:44:54.028Z,7.05
2022-08-26T05:47:24.320Z,6.35
2022-08-26T05:49:51.899Z,6.97
2022-08-26T05:52:19.794Z,7.10
2022-08-26T05:54:47.692Z,6.10
2022-08-26T05:57:15.756Z,6.57
2022-08-26T05:59:42.872Z,6.03
2022-08-26T06:02:10.116Z,6.22
2022-08-26T06:04:38.450Z,6.72
2022-08-26T06:07:05.713Z,6.10
2022-08-26T06:09:37.283Z,5.75
2022-08-26T06:12:06.744Z,5.88
2022-08-26T06:14:33.915Z,6.38
2022-08-26T06:17:01.113Z,6.03
2022-08-26T06:19:32.893Z,7.28
2022-08-26T06:22:23.272Z,6.15
2022-08-26T06:25:11.921Z,6.10
2022-08-26T06:27:39.086Z,5.25
2022-08-26T06:30:07.085Z,6.45
2022-08-26T06:32:34.212Z,5.32
2022-08-26T06:35:01.536Z,5.80
2022-08-26T06:37:28.963Z,6.05
2022-08-26T06:39:56.438Z,5.40
2022-08-26T06:42:24.885Z,5.43
2022-08-26T06:44:52.223Z,5.65
2022-08-26T06:47:19.346Z,5.80
2022-08-26T06:49:46.496Z,6.50
2022-08-26T06:52:14.199Z,5.32
2022-08-26T06:54:47.244Z,4.78
2022-08-26T06:57:14.589Z,5.30
2022-08-26T06:59:43.983Z,5.40
2022-08-26T07:02:13.600Z,5.38
2022-08-26T07:04:41.405Z,6.20
2022-08-26T07:07:09.646Z,5.38
2022-08-26T07:09:37.453Z,5.57
2022-08-26T07:12:06.861Z,5.50
2022-08-26T07:14:34.997Z,5.32
2022-08-26T07:17:02.609Z,5.18
2022-08-26T07:19:31.641Z,5.07
2022-08-26T07:22:03.415Z,5.43
2022-08-26T07:24:33.273Z,5.15
2022-08-26T07:27:05.845Z,4.10
2022-08-26T07:29:35.085Z,4.60
2022-08-26T07:32:03.503Z,4.97
2022-08-26T07:34:33.310Z,4.97
2022-08-26T07:37:01.393Z,5.70
2022-08-26T07:39:31.447Z,4.97
2022-08-26T07:42:07.409Z,4.47
2022-08-26T07:44:39.729Z,5.13
2022-08-26T07:47:24.103Z,4.70
2022-08-26T07:49:57.871Z,4.55
2022-08-26T07:52:30.040Z,4.57
2022-08-26T07:54:59.252Z,4.25
2022-08-26T07:57:27.788Z,4.82
2022-08-26T07:59:55.452Z,4.53
2022-08-26T08:02:23.727Z,4.70
2022-08-26T08:04:51.841Z,4.28
2022-08-26T08:07:19.106Z,4.47
2022-08-26T08:09:49.493Z,4.22
2022-08-26T08:12:17.683Z,4.70
2022-08-26T08:14:46.849Z,4.00
2022-08-26T08:17:16.661Z,3.95
2022-08-26T08:19:43.831Z,3.88
2022-08-26T08:22:17.302Z,4.38
2022-08-26T08:24:49.691Z,3.65
2022-08-26T08:27:22.819Z,3.83
2022-08-26T08:29:54.330Z,3.80
2022-08-26T08:32:23.649Z,3.95
2022-08-26T08:34:51.014Z,3.70
2022-08-26T08:37:18.372Z,4.25
2022-08-26T08:39:45.491Z,3.88
2022-08-26T08:42:46.139Z,4.20
2022-08-26T08:45:27.356Z,3.90
2022-08-26T08:47:58.565Z,4.20
2022-08-26T08:50:35.676Z,3.45
2022-08-26T08:53:31.840Z,4.20
2022-08-26T08:56:29.278Z,3.70
2022-08-26T08:59:16.860Z,4.95
2022-08-26T09:02:12.848Z,4.10
2022-08-26T09:05:08.113Z,3.88
2022-08-26T09:07:43.326Z,3.60
2022-08-26T09:10:32.565Z,3.65
2022-08-26T09:13:02.674Z,3.97
2022-08-26T09:15:50.631Z,3.97
2022-08-26T09:20:53.102Z,3.72
2022-08-26T09:23:20.679Z,3.42
2022-08-26T09:25:51.054Z,5.32
2022-08-26T09:28:21.614Z,3.65
2022-08-26T09:31:13.360Z,3.90
2022-08-26T09:33:41.753Z,3.80
2022-08-26T09:36:24.841Z,3.45
2022-08-26T09:38:53.916Z,3.83
2022-08-26T09:41:28.206Z,3.70
2022-08-26T09:44:19.132Z,3.83
2022-08-26T09:46:59.361Z,3.72
2022-08-26T09:49:37.617Z,4.38
2022-08-26T09:52:10.912Z,5.45
2022-08-26T09:54:38.980Z,4.05
2022-08-26T09:57:20.077Z,4.88
2022-08-26T09:59:51.464Z,4.28
2022-08-26T10:02:33.851Z,3.92
2022-08-26T10:05:09.578Z,3.65
2022-08-26T10:08:26.037Z,4.07
2022-08-26T10:10:55.346Z,3.58
2022-08-26T10:13:33.844Z,3.00
2022-08-26T10:16:20.856Z,3.65
2022-08-26T10:19:06.421Z,2.92
2022-08-26T10:21:49.599Z,3.60
2022-08-26T10:24:47.723Z,3.33
2022-08-26T10:27:23.268Z,4.25
2022-08-26T10:29:54.815Z,3.40
2022-08-26T10:32:28.529Z,3.65
2022-08-26T10:34:55.936Z,3.38
2022-08-26T10:37:31.225Z,4.45
2022-08-26T10:40:29.395Z,3.50
2022-08-26T10:43:12.563Z,3.63
2022-08-26T10:45:48.949Z,3.67
2022-08-26T10:48:48.446Z,3.88
2022-08-26T10:51:21.756Z,3.72
2022-08-26T10:54:04.869Z,3.80
2022-08-26T10:57:07.029Z,3.80
2022-08-26T10:59:51.693Z,4.13
2022-08-26T11:02:25.228Z,3.80
2022-08-26T11:05:05.523Z,4.35
2022-08-26T11:07:32.788Z,3.38
2022-08-26T11:10:09.955Z,3.55
2022-08-26T11:12:37.519Z,3.58
2022-08-26T11:15:08.883Z,3.38
2022-08-26T11:17:45.012Z,3.58
2022-08-26T11:20:33.756Z,3.40
2022-08-26T11:23:23.858Z,3.45
2022-08-26T11:26:06.386Z,3.75
2022-08-26T11:28:50.310Z,3.78
2022-08-26T11:31:26.919Z,5.75
2022-08-26T11:33:57.089Z,4.60
2022-08-26T11:36:45.466Z,3.65
2022-08-26T11:39:36.637Z,3.63
2022-08-26T11:42:34.410Z,3.72
2022-08-26T11:45:22.455Z,3.60
2022-08-26T11:47:51.381Z,3.78
2022-08-26T11:50:20.583Z,3.80
2022-08-26T11:52:56.081Z,4.03
2022-08-26T11:55:24.155Z,3.40
2022-08-26T11:57:54.937Z,3.60
2022-08-26T12:00:33.281Z,3.42
2022-08-26T12:03:06.577Z,3.47
2022-08-26T12:05:43.582Z,4.30
2022-08-26T12:08:21.702Z,4.13
2022-08-26T12:10:49.420Z,4.10
2022-08-26T12:13:26.256Z,3.63
2022-08-26T12:15:59.894Z,3.75
2022-08-26T12:18:38.738Z,3.55
2022-08-26T12:21:22.736Z,3.67
2022-08-26T12:23:57.435Z,3.77
2022-08-26T12:26:28.172Z,3.97
2022-08-26T12:29:18.086Z,3.30
2022-08-26T12:31:48.477Z,4.10
2022-08-26T12:34:18.544Z,3.65
2022-08-26T12:42:02.602Z,3.47
2022-08-26T12:44:38.246Z,3.38
2022-08-26T12:47:30.957Z,4.07
2022-08-26T12:50:18.836Z,4.20
2022-08-26T12:52:52.152Z,3.67
2022-08-26T12:55:25.785Z,3.50
2022-08-26T12:58:11.574Z,3.53
2022-08-26T13:00:40.983Z,3.70
2022-08-26T13:03:45.493Z,3.45
2022-08-26T13:06:22.525Z,3.35
2022-08-26T13:08:53.193Z,3.60
2022-08-26T13:11:30.170Z,3.45
2022-08-26T13:14:12.276Z,3.20
2022-08-26T13:16:49.417Z,2.90
2022-08-26T13:19:19.961Z,3.40
2022-08-26T13:21:54.575Z,7.00
2022-08-26T13:24:34.159Z,5.00
2022-08-26T13:27:02.653Z,3.55
2022-08-26T13:29:30.808Z,3.33
2022-08-26T13:31:59.094Z,3.30
2022-08-26T13:34:27.163Z,3.28
2022-08-26T13:36:56.469Z,3.30
2022-08-26T13:39:24.641Z,3.35
2022-08-26T13:41:52.455Z,3.10
2022-08-26T13:44:19.985Z,3.60
2022-08-26T13:46:47.589Z,3.20
2022-08-26T13:49:14.843Z,4.30
2022-08-26T13:51:42.871Z,7.68
2022-08-26T13:54:10.069Z,5.75
2022-08-26T13:56:37.628Z,3.65
2022-08-26T13:59:06.404Z,3.95
2022-08-26T14:01:35.173Z,3.22
2022-08-26T14:04:03.321Z,3.25
2022-08-26T14:06:30.839Z,3.55
2022-08-26T14:08:58.238Z,4.05
2022-08-26T14:11:25.494Z,3.20
2022-08-26T14:13:53.099Z,4.18
2022-08-26T14:16:27.681Z,3.50
2022-08-26T14:18:55.402Z,3.05
2022-08-26T14:21:23.802Z,3.58
2022-08-26T14:23:51.054Z,4.00
2022-08-26T14:26:28.273Z,3.80
2022-08-26T14:28:57.762Z,3.40
2022-08-26T14:31:27.221Z,3.50
2022-08-26T14:33:57.477Z,3.75
2022-08-26T14:36:33.667Z,4.35
2022-08-26T14:39:10.639Z,4.05
2022-08-26T14:41:54.077Z,3.53
2022-08-26T14:44:27.154Z,3.65
2022-08-26T14:46:54.992Z,3.80
2022-08-26T14:49:24.478Z,4.20
2022-08-26T14:51:51.874Z,4.38
2022-08-26T14:54:20.477Z,4.22
2022-08-26T14:57:01.348Z,4.40
2022-08-26T14:59:35.566Z,4.63
2022-08-26T15:02:04.453Z,3.95
2022-08-26T15:04:32.323Z,3.80
2022-08-26T15:07:00.688Z,4.22
2022-08-26T15:09:30.363Z,4.10
2022-08-26T15:11:57.885Z,4.03
2022-08-26T15:14:27.581Z,5.18
2022-08-26T15:16:57.111Z,5.65
2022-08-26T15:19:26.770Z,5.70
2022-08-26T15:21:54.198Z,4.43
2022-08-26T15:24:24.840Z,8.85
2022-08-26T15:26:53.323Z,4.55
2022-08-26T15:29:20.823Z,4.00
2022-08-26T15:31:48.798Z,4.50
2022-08-26T15:34:17.167Z,3.80
2022-08-26T15:36:46.573Z,4.00
2022-08-26T15:39:15.537Z,6.72
2022-08-26T15:41:43.497Z,5.07
2022-08-26T15:44:11.585Z,6.32
2022-08-26T15:46:39.328Z,4.28
2022-08-26T15:49:07.133Z,6.05
2022-08-26T15:51:45.859Z,4.93
2022-08-26T15:54:16.755Z,4.55
2022-08-26T15:56:45.514Z,4.88
2022-08-26T15:59:15.481Z,4.57
2022-08-26T16:01:43.511Z,5.30
2022-08-26T16:04:11.542Z,4.85
2022-08-26T16:06:41.537Z,6.30
2022-08-26T16:09:09.805Z,7.15
2022-08-26T16:11:39.863Z,7.20
2022-08-26T16:14:07.847Z,4.53
2022-08-26T16:16:39.443Z,5.40
2022-08-26T16:19:08.226Z,5.03
2022-08-26T16:21:35.721Z,5.55
2022-08-26T16:24:03.618Z,5.45
2022-08-26T16:26:33.197Z,4.72
2022-08-26T16:29:10.590Z,5.40
2022-08-26T16:31:38.407Z,4.20
2022-08-26T16:34:07.831Z,4.80
2022-08-26T16:36:36.946Z,5.57
2022-08-26T16:39:05.802Z,4.57
2022-08-26T16:41:33.438Z,4.45
2022-08-26T16:44:00.858Z,4.65
2022-08-26T16:46:29.013Z,4.53
2022-08-26T16:48:58.523Z,6.43
2022-08-26T16:51:27.582Z,6.07
2022-08-26T16:53:56.488Z,7.55
2022-08-26T16:56:27.677Z,11.45
2022-08-26T16:59:02.864Z,9.50
2022-08-26T17:01:30.359Z,8.98
2022-08-26T17:03:57.579Z,7.28
2022-08-26T17:06:24.770Z,6.82
2022-08-26T17:08:52.566Z,7.32
2022-08-26T17:11:19.855Z,8.07
2022-08-26T17:13:47.268Z,7.95
2022-08-26T17:16:15.005Z,11.55
2022-08-26T17:18:42.453Z,10.88
2022-08-26T17:21:12.478Z,15.23
2022-08-26T17:23:41.228Z,14.43
2022-08-26T17:26:09.621Z,13.68
2022-08-26T17:28:36.729Z,11.75
2022-08-26T17:31:05.129Z,10.93
2022-08-26T17:33:32.907Z,9.30
2022-08-26T17:36:00.702Z,8.98
2022-08-26T17:38:29.234Z,8.00
2022-08-26T17:40:57.515Z,9.23
2022-08-26T17:43:26.754Z,9.40
2022-08-26T17:45:58.654Z,8.98
2022-08-26T17:48:35.525Z,9.00
2022-08-26T17:51:17.088Z,8.93
2022-08-26T17:53:44.176Z,8.43
2022-08-26T17:56:14.327Z,7.32
2022-08-26T17:58:51.162Z,6.78
2022-08-26T18:01:20.832Z,7.05
2022-08-26T18:03:49.102Z,6.35
2022-08-26T18:06:16.411Z,6.50
2022-08-26T18:08:44.938Z,7.03
2022-08-26T18:11:16.538Z,6.50
2022-08-26T18:13:47.499Z,7.00
2022-08-26T18:16:17.722Z,6.40
2022-08-26T18:18:46.493Z,6.65
2022-08-26T18:21:19.045Z,6.63
2022-08-26T18:23:47.612Z,6.70
2022-08-26T18:26:33.323Z,5.55
2022-08-26T18:29:00.951Z,7.28
2022-08-26T18:31:28.931Z,11.32
2022-08-26T18:33:56.557Z,10.63
2022-08-26T18:36:33.900Z,8.25
2022-08-26T18:39:02.086Z,6.70
2022-08-26T18:41:31.159Z,6.65
2022-08-26T18:43:58.494Z,7.30
2022-08-26T18:46:27.189Z,7.40
2022-08-26T18:48:56.068Z,8.40
2022-08-26T18:51:27.703Z,7.18
2022-08-26T18:53:55.105Z,6.93
2022-08-26T18:56:22.718Z,7.30
2022-08-26T18:58:50.407Z,7.32
2022-08-26T19:01:18.820Z,8.35
2022-08-26T19:03:47.105Z,7.90
2022-08-26T19:06:17.013Z,6.70
2022-08-26T19:08:44.665Z,7.57
2022-08-26T19:11:13.867Z,7.68
2022-08-26T19:13:45.282Z,7.47
2022-08-26T19:16:30.938Z,8.15
2022-08-26T19:19:01.324Z,8.23
2022-08-26T19:21:29.849Z,8.70
2022-08-26T19:23:58.697Z,8.48
2022-08-26T19:26:31.088Z,8.43
2022-08-26T19:28:58.829Z,7.95
2022-08-26T19:31:26.901Z,7.97
2022-08-26T19:33:54.261Z,7.20
2022-08-26T19:36:23.747Z,7.97
2022-08-26T19:38:51.977Z,7.60
2022-08-26T19:41:29.423Z,8.05
2022-08-26T19:44:07.616Z,7.97
2022-08-26T19:46:36.400Z,7.82
2022-08-26T19:49:03.637Z,8.40
2022-08-26T19:51:33.245Z,7.35
2022-08-26T19:54:01.895Z,7.80
2022-08-26T19:56:29.487Z,7.38
2022-08-26T19:58:57.066Z,7.18
2022-08-26T20:01:24.760Z,8.15
2022-08-26T20:03:52.083Z,7.97
2022-08-26T20:06:20.241Z,7.97
2022-08-26T20:08:50.734Z,7.45
2022-08-26T20:11:19.275Z,7.82
2022-08-26T20:13:47.960Z,8.23
2022-08-26T20:16:16.842Z,7.03
2022-08-26T20:19:03.902Z,7.53
2022-08-26T20:21:35.745Z,6.68
2022-08-26T20:24:09.588Z,6.90
2022-08-26T20:26:38.834Z,7.20
2022-08-26T20:29:08.081Z,7.78
2022-08-26T20:31:35.957Z,6.82
2022-08-26T20:34:05.320Z,6.65
2022-08-26T20:36:33.334Z,6.65
2022-08-26T20:39:00.633Z,7.00
2022-08-26T20:41:28.722Z,7.32
2022-08-26T20:43:56.903Z,6.82
2022-08-26T20:46:25.544Z,7.75
2022-08-26T20:48:53.959Z,7.20
2022-08-26T20:51:23.707Z,8.27
2022-08-26T20:53:51.356Z,8.00
2022-08-26T20:56:25.304Z,8.25
2022-08-26T20:58:54.444Z,7.07
2022-08-26T21:01:28.375Z,7.22
2022-08-26T21:03:57.015Z,7.22
2022-08-26T21:06:24.657Z,7.43
2022-08-26T21:08:51.901Z,6.88
2022-08-26T21:11:20.623Z,8.52
2022-08-26T21:14:04.492Z,7.68
2022-08-26T21:16:36.752Z,8.55
2022-08-26T21:19:05.926Z,7.68
2022-08-26T21:21:33.941Z,7.45
2022-08-26T21:24:01.547Z,7.35
2022-08-26T21:26:29.578Z,8.23
2022-08-26T21:28:56.908Z,7.22
2022-08-26T21:31:25.707Z,8.13
2022-08-26T21:33:53.242Z,7.30
2022-08-26T21:36:20.689Z,8.43
2022-08-26T21:38:48.186Z,7.68
2022-08-26T21:41:24.440Z,8.23
2022-08-26T21:43:55.161Z,9.15
2022-08-26T21:46:24.659Z,9.23
2022-08-26T21:48:59.533Z,8.75
2022-08-26T21:51:34.273Z,8.15
2022-08-26T21:54:03.679Z,7.97
2022-08-26T21:56:36.074Z,7.97
2022-08-26T21:59:03.313Z,7.95
2022-08-26T22:01:32.546Z,6.97
2022-08-26T22:04:00.648Z,8.27
2022-08-26T22:06:29.761Z,7.55
2022-08-26T22:08:58.061Z,8.57
2022-08-26T22:11:27.545Z,7.68
2022-08-26T22:13:56.977Z,7.38
2022-08-26T22:16:26.990Z,8.20
2022-08-26T22:18:55.282Z,9.45
2022-08-26T22:21:24.825Z,8.23
2022-08-26T22:23:56.136Z,7.53
2022-08-26T22:26:29.134Z,9.52
2022-08-26T22:28:59.051Z,8.05
2022-08-26T22:31:37.571Z,9.00
2022-08-26T22:34:08.671Z,9.98
2022-08-26T22:36:43.058Z,9.35
2022-08-26T22:39:16.647Z,8.83
2022-08-26T22:41:45.064Z,9.63
2022-08-26T22:44:12.892Z,8.80
2022-08-26T22:46:41.659Z,9.07
2022-08-26T22:49:11.590Z,8.18
2022-08-26T22:51:39.290Z,8.40
2022-08-26T22:54:06.879Z,8.63
2022-08-26T22:56:35.377Z,9.52
2022-08-26T22:59:03.989Z,9.27
2022-08-26T23:01:31.583Z,9.30
2022-08-26T23:03:59.201Z,10.00
2022-08-26T23:06:26.500Z,8.57
2022-08-26T23:08:53.922Z,10.30
2022-08-26T23:11:21.471Z,8.27
2022-08-26T23:13:48.757Z,8.65
2022-08-26T23:16:16.328Z,10.30
2022-08-26T23:18:43.809Z,8.98
2022-08-26T23:21:11.116Z,7.75
2022-08-26T23:23:38.627Z,10.48
2022-08-26T23:26:08.228Z,9.98
2022-08-26T23:28:37.750Z,9.65
2022-08-26T23:31:05.970Z,7.72
2022-08-26T23:33:52.209Z,8.63
2022-08-26T23:36:22.756Z,8.98
2022-08-26T23:38:52.953Z,7.65
2022-08-26T23:41:22.766Z,9.35
2022-08-26T23:43:50.838Z,8.73
2022-08-26T23:46:19.185Z,7.80
2022-08-26T23:48:46.555Z,8.32
2022-08-26T23:51:32.471Z,8.55
2022-08-26T23:53:59.985Z,8.43
2022-08-26T23:56:27.215Z,8.70
2022-08-26T23:58:56.290Z,8.20
